Chilliwack, Canada
Current Conditions -  °F | °C
As of 1:00 AM on Monday 24 Nov 2014 (Local Time) from CYXX Reporting Station
Scattered Clouds Scattered Clouds  
Wind Chill: 36°   Ceiling: Unl
Heat Index: 36°   Visibility: 15mi
Dew Point: 36°   Wind: 2mph
Humidity: 100%   Direction: NA
Pressure: 30.33"   Gusts: NA
Location:  49.16°N, 121.95°W
Report Text: CYXX 240900Z VRB02KT 15SM SCT240 02/02 A3033 RMK CI4 SLP273
Loading
Personal Weather Stations






























Interactive Weather Map New forecast layout! Learn more

10-Day Weather Forecast

Advertisements
Track Severe Weather on mobile